עמוד ראשי
METAR-TAF:

METAR-TAF

שדות תעופה :

סאו פאולו, סאו פאולו, ברזיל

קו רוחב: 23-37S, קו אורך: 046-39W, גובה: 803מטר

תצפית מזג אוויר נוכחית

הדו"ח נערך לפני 23דקות, בשעה 02:01 UTC
רוח 2קשר מכיוון דרום-מזרח
טמפרטורת 19 צלסיוס
לחות 52%
לחץ 1022 hPa
ראות 10 קילומטר או יותר
ללא עננים שבסיסם נמוך מ 5000 רגל או קומולונימבוס

METAR: SBSP 200201Z 14002KT CAVOK 19/09 Q1022

זמן: 23:24 (02:24 UTC)

תחזית

הדו"ח נערך לפני 6 שעות ו 24דקות, בשעה 20:00 UTC
תחזית בתוקף מ 20 ב 00 UTC עד 20 ב 12 UTC
רוח 4קשר מכיוון צפון/צפון-מזרח
ראות 10 קילומטר או יותר
ללא עננים שבסיסם נמוך מ 5000 רגל או קומולונימבוס
זמנית מ -
20 ב 05 UTC עד 20 ב 09 UTC
רוח 3קשר מכיוון צפון/צפון-מערב
יעשה מ
20 ב 09 UTC עד 20 ב 11 UTC
רוח 6קשר מכיוון צפון/צפון-מזרח

TAF: SBSP 192000Z 2000/2012 02004KT CAVOK TX21/2000Z TN16/2009Z TEMPO 2005/2009 34003KT BECMG 2009/2011 02006KT RMK PGE

תצפיות ותחזיות מזג אוויר לגבי יותר מ- 4,000 שדות תעופה ברחבי העולם. דוחות METAR ו- TAF.

התחנות הזמינות מסומנות בנקודות צהובות ואדומות על גבי המפה.

העבר את העכבר לנקודה הצבעונית על מנת לראות את שם התחנה.

לאחר מכן, לחץ כדי לראות את תוכן ואת תחזיות מזג האוויר.

כדי לשנות את המפה: לחץ על הכפתורים הירוקים עם הפלוס השחור כדי להתקרב; על הכפתור הירוק עם המקף כדי להתרחק; או בחיצים הירוקים למפות סמוכות.


METAR-TAF: